Time;durP1;ratioP1;P1;durP2;ratioP2;P2;SDS_P1;SDS_P2;PMS_P1;PMS_P2;Temp;Humidity;BMP_temperature;BMP_pressure;BME280_temperature;BME280_humidity;BME280_pressure;Samples;Min_cycle;Max_cycle;Signal;HPM_P1;HPM_P2
2021/11/16 00:00:36;;;;;;;63.27;35.30;;;;;;;0.78;80.44;101698.47;1421327;91;22328;-90
2021/11/16 00:03:05;;;;;;;60.05;33.40;;;;;;;0.70;80.15;101697.87;1420631;91;21609;-90
2021/11/16 00:05:32;;;;;;;51.10;32.20;;;;;;;0.62;79.77;101701.20;1421316;91;21434;-89
2021/11/16 00:08:00;;;;;;;57.55;33.63;;;;;;;0.61;79.89;101706.02;1417212;92;21561;-89
2021/11/16 00:10:27;;;;;;;58.10;32.90;;;;;;;0.63;79.69;101702.88;1420468;92;21640;-89
2021/11/16 00:12:57;;;;;;;53.07;32.80;;;;;;;0.57;80.03;101703.09;1420539;91;21663;-89
2021/11/16 00:15:25;;;;;;;49.43;31.27;;;;;;;0.55;79.89;101702.33;1412679;91;23107;-89
2021/11/16 00:17:52;;;;;;;59.45;34.27;;;;;;;0.54;79.60;101700.14;1426037;91;23204;-90
2021/11/16 00:20:21;;;;;;;61.57;35.97;;;;;;;0.53;79.44;101702.36;1425138;91;21427;-89
2021/11/16 00:22:48;;;;;;;60.48;34.35;;;;;;;0.55;79.83;101697.95;1428671;91;22449;-90
2021/11/16 00:25:23;;;;;;;57.78;34.27;;;;;;;0.56;79.66;101694.44;1427980;91;22295;-91
2021/11/16 00:27:49;;;;;;;62.03;36.40;;;;;;;0.56;79.48;101698.34;1422367;91;21526;-91
2021/11/16 00:30:18;;;;;;;66.15;36.55;;;;;;;0.55;79.41;101694.51;1428321;91;22261;-92
2021/11/16 00:32:46;;;;;;;60.53;36.87;;;;;;;0.51;79.56;101696.34;1425379;91;22443;-92
2021/11/16 00:35:14;;;;;;;62.35;36.90;;;;;;;0.49;79.10;101699.89;1424825;91;24183;-91
2021/11/16 00:37:41;;;;;;;59.85;36.73;;;;;;;0.54;79.15;101697.99;1428926;91;22969;-90
2021/11/16 00:40:16;;;;;;;60.90;37.93;;;;;;;0.54;79.79;101691.48;1421269;91;22866;-89
2021/11/16 00:42:44;;;;;;;60.48;34.38;;;;;;;0.51;79.58;101695.50;1436303;91;21430;-91
2021/11/16 00:45:13;;;;;;;62.50;35.83;;;;;;;0.55;79.59;101707.53;1421119;91;21481;-90
2021/11/16 00:47:42;;;;;;;60.10;35.95;;;;;;;0.58;79.18;101705.66;1425699;91;21430;-91
2021/11/16 00:50:11;;;;;;;63.17;36.93;;;;;;;0.58;79.43;101706.12;1421646;91;22308;-91
2021/11/16 00:52:38;;;;;;;54.75;35.68;;;;;;;0.59;79.22;101702.61;1428767;90;22520;-92
2021/11/16 00:55:06;;;;;;;56.25;34.23;;;;;;;0.66;79.02;101709.29;1422803;91;21393;-91
2021/11/16 00:57:33;;;;;;;70.92;38.63;;;;;;;0.65;78.65;101706.30;1421610;91;21556;-92
2021/11/16 01:00:00;;;;;;;62.23;36.68;;;;;;;0.67;78.72;101708.41;1429790;91;22486;-92
2021/11/16 01:02:28;;;;;;;56.77;35.85;;;;;;;0.67;78.79;101704.50;1418207;91;21557;-93
2021/11/16 01:04:55;;;;;;;64.07;35.58;;;;;;;0.67;78.79;101705.34;1420859;91;21482;-90
2021/11/16 01:07:22;;;;;;;53.60;33.93;;;;;;;0.62;78.64;101705.10;1419733;91;21511;-90
2021/11/16 01:09:50;;;;;;;59.90;35.98;;;;;;;0.53;78.51;101703.66;1426200;91;22069;-89
2021/11/16 01:12:18;;;;;;;64.53;37.50;;;;;;;0.51;78.53;101708.06;1421832;91;22367;-90
2021/11/16 01:14:46;;;;;;;60.83;34.78;;;;;;;0.50;78.62;101705.08;1424116;91;21529;-90
2021/11/16 01:17:14;;;;;;;53.58;33.50;;;;;;;0.54;78.89;101704.05;1428470;91;21681;-90
2021/11/16 01:19:42;;;;;;;56.05;33.10;;;;;;;0.55;78.73;101704.92;1415016;91;21437;-89
2021/11/16 01:22:10;;;;;;;61.53;35.70;;;;;;;0.47;78.67;101702.58;1425605;91;21538;-90
2021/11/16 01:24:37;;;;;;;59.98;35.65;;;;;;;0.38;78.63;101707.64;1414571;91;21842;-92
2021/11/16 01:27:07;;;;;;;59.83;35.25;;;;;;;0.33;78.79;101699.13;1419598;92;21351;-92
2021/11/16 01:29:37;;;;;;;59.83;33.75;;;;;;;0.29;79.08;101697.53;1395856;92;23390;-91
2021/11/16 01:32:13;;;;;;;63.35;36.05;;;;;;;0.25;79.37;101698.97;1401506;93;21545;-90
2021/11/16 01:34:35;;;;;;;67.27;35.50;;;;;;;0.22;79.12;101685.14;1367432;93;21673;-91
2021/11/16 01:37:02;;;;;;;58.40;36.68;;;;;;;0.15;79.53;101697.98;1419905;91;21530;-90
2021/11/16 01:39:29;;;;;;;58.60;36.80;;;;;;;0.17;79.15;101704.42;1410290;93;21571;-91
2021/11/16 01:41:57;;;;;;;63.08;37.60;;;;;;;0.22;79.24;101697.31;1409881;92;21620;-90
2021/11/16 01:44:24;;;;;;;60.48;34.43;;;;;;;0.22;79.93;101692.11;1405323;93;21571;-90
2021/11/16 01:46:51;;;;;;;59.98;33.55;;;;;;;0.19;79.97;101696.12;1407172;93;21465;-90
2021/11/16 01:49:18;;;;;;;57.55;34.27;;;;;;;0.14;79.35;101694.11;1409757;92;22932;-92
2021/11/16 01:51:46;;;;;;;57.08;35.45;;;;;;;0.13;79.42;101692.42;1407618;91;21414;-91
2021/11/16 01:54:13;;;;;;;60.98;35.52;;;;;;;0.17;79.24;101696.61;1403549;92;21450;-91
2021/11/16 01:56:45;;;;;;;62.90;38.05;;;;;;;0.21;79.25;101691.27;1404973;92;21340;-92
2021/11/16 01:59:14;;;;;;;60.55;33.78;;;;;;;0.17;79.43;101691.41;1405860;93;21435;-92
2021/11/16 02:01:41;;;;;;;66.72;35.85;;;;;;;0.13;79.66;101693.72;1406959;92;21434;-89
2021/11/16 02:04:09;;;;;;;54.85;32.17;;;;;;;0.06;79.18;101696.10;1411034;92;21487;-91
2021/11/16 02:06:40;;;;;;;58.70;35.25;;;;;;;-0.02;79.25;101693.77;1407367;92;22490;-92
2021/11/16 02:09:13;;;;;;;54.45;33.92;;;;;;;-0.10;79.64;101699.20;1411992;92;22476;-92
2021/11/16 02:11:41;;;;;;;56.55;32.70;;;;;;;-0.16;79.58;101696.80;1415088;93;21427;-92
2021/11/16 02:14:13;;;;;;;59.15;37.58;;;;;;;-0.14;79.43;101701.97;1408430;92;21413;-92
2021/11/16 02:16:42;;;;;;;76.07;41.98;;;;;;;-0.16;80.05;101703.76;1407650;93;22478;-90
2021/11/16 02:19:14;;;;;;;62.40;40.85;;;;;;;-0.22;80.17;101703.50;1403977;92;21420;-91
2021/11/16 02:21:42;;;;;;;61.65;37.75;;;;;;;-0.20;79.89;101709.52;1405554;93;21376;-91
2021/11/16 02:24:10;;;;;;;60.63;37.90;;;;;;;-0.22;79.92;101707.41;1408030;92;21576;-91
2021/11/16 02:26:38;;;;;;;61.88;39.63;;;;;;;-0.19;79.77;101709.91;1413665;92;21827;-90
2021/11/16 02:29:07;;;;;;;67.35;36.38;;;;;;;-0.18;79.73;101705.55;1421518;92;22362;-90
2021/11/16 02:31:35;;;;;;;69.42;40.90;;;;;;;-0.21;79.66;101706.49;1415241;92;21438;-91
2021/11/16 02:34:05;;;;;;;64.42;37.70;;;;;;;-0.24;80.06;101701.38;1418951;92;21379;-90
2021/11/16 02:36:34;;;;;;;58.00;36.17;;;;;;;-0.26;79.90;101712.28;1418321;92;21504;-91
2021/11/16 02:39:07;;;;;;;78.62;41.33;;;;;;;-0.30;79.67;101700.27;1414827;92;21370;-90
2021/11/16 02:41:34;;;;;;;62.03;36.93;;;;;;;-0.26;79.53;101704.47;1419718;92;21364;-90
2021/11/16 02:44:06;;;;;;;67.82;38.80;;;;;;;-0.22;79.54;101704.80;1405080;92;21548;-89
2021/11/16 02:46:35;;;;;;;72.35;42.88;;;;;;;-0.22;79.62;101699.59;1404031;92;21534;-89
2021/11/16 02:49:03;;;;;;;65.03;39.35;;;;;;;-0.21;79.68;101700.44;1416420;92;21452;-88
2021/11/16 02:51:34;;;;;;;67.35;38.85;;;;;;;-0.17;79.69;101696.83;1415347;92;21401;-90
2021/11/16 02:54:04;;;;;;;63.17;36.10;;;;;;;-0.15;79.49;101693.73;1412652;92;21815;-90
2021/11/16 02:56:31;;;;;;;55.58;35.92;;;;;;;-0.13;79.39;101697.16;1417412;91;22457;-88
2021/11/16 02:58:58;;;;;;;63.87;38.33;;;;;;;-0.13;78.92;101699.30;1418928;92;21541;-92
2021/11/16 03:01:25;;;;;;;71.33;38.15;;;;;;;-0.13;78.79;101699.30;1415359;92;21327;-92
2021/11/16 03:03:52;;;;;;;62.70;37.70;;;;;;;-0.10;78.73;101702.27;1410346;92;21637;-91
2021/11/16 03:06:20;;;;;;;63.92;37.42;;;;;;;-0.09;79.04;101698.30;1398088;92;23479;-91
2021/11/16 03:08:48;;;;;;;65.22;38.25;;;;;;;-0.10;78.93;101694.45;1421181;92;21327;-90
2021/11/16 03:11:16;;;;;;;60.43;35.08;;;;;;;-0.09;79.25;101693.55;1413616;92;22900;-90
2021/11/16 03:13:44;;;;;;;59.27;37.08;;;;;;;-0.08;79.11;101697.41;1420957;92;22244;-90
2021/11/16 03:16:18;;;;;;;58.20;37.58;;;;;;;-0.06;78.90;101696.92;1421048;92;22244;-89
2021/11/16 03:18:52;;;;;;;63.38;38.00;;;;;;;-0.08;78.91;101695.27;1419518;92;21430;-89
2021/11/16 03:21:23;;;;;;;59.35;36.20;;;;;;;-0.17;79.11;101691.63;1421796;91;21573;-90
2021/11/16 03:23:53;;;;;;;62.03;36.80;;;;;;;-0.22;78.72;101692.25;1427156;91;21591;-92
2021/11/16 03:26:23;;;;;;;62.45;39.70;;;;;;;-0.24;78.76;101692.28;1437460;91;22470;-90
2021/11/16 03:28:52;;;;;;;67.67;37.67;;;;;;;-0.27;78.81;101685.88;1450786;91;21399;-89
2021/11/16 03:33:56;;;;;;;72.05;39.67;;;;;;;-0.40;78.82;101689.73;1431382;91;21592;-89
2021/11/16 03:36:24;;;;;;;75.08;39.45;;;;;;;-0.51;79.10;101695.28;1434651;91;23606;-90
2021/11/16 03:38:55;;;;;;;67.32;40.65;;;;;;;-0.56;79.72;101694.10;1439736;89;21407;-90
2021/11/16 03:41:23;;;;;;;64.37;39.70;;;;;;;-0.59;80.81;101700.70;1427876;91;21436;-90
2021/11/16 03:43:52;;;;;;;67.67;38.02;;;;;;;-0.61;81.10;101697.28;1436060;91;21443;-90
2021/11/16 03:46:21;;;;;;;61.37;37.65;;;;;;;-0.63;81.00;101700.40;1436342;91;21406;-92
2021/11/16 03:48:49;;;;;;;65.17;36.65;;;;;;;-0.65;80.34;101700.03;1440586;91;21370;-91
2021/11/16 03:51:16;;;;;;;64.07;36.50;;;;;;;-0.63;80.03;101706.02;1434936;91;21641;-89
2021/11/16 03:53:44;;;;;;;65.70;39.65;;;;;;;-0.63;79.66;101706.02;1433487;91;21362;-89
2021/11/16 03:56:12;;;;;;;75.80;41.13;;;;;;;-0.66;79.72;101699.19;1433661;91;21406;-90
2021/11/16 03:58:42;;;;;;;67.03;40.67;;;;;;;-0.71;80.19;101698.47;1431938;91;21310;-90
2021/11/16 04:01:09;;;;;;;66.30;37.93;;;;;;;-0.71;80.07;101697.16;1434070;91;22278;-91
2021/11/16 04:03:40;;;;;;;71.95;40.65;;;;;;;-0.70;80.20;101694.50;1438277;91;22337;-91
2021/11/16 04:06:10;;;;;;;73.28;43.02;;;;;;;-0.69;79.96;101696.23;1417167;91;21406;-89
2021/11/16 04:08:38;;;;;;;76.30;42.55;;;;;;;-0.71;80.17;101698.01;1439572;91;21576;-89
2021/11/16 04:11:05;;;;;;;64.10;36.45;;;;;;;-0.73;79.89;101695.05;1429254;91;21555;-90
2021/11/16 04:13:33;;;;;;;66.65;38.10;;;;;;;-0.79;80.15;101690.87;1403393;91;23895;-90
2021/11/16 04:16:02;;;;;;;72.67;38.58;;;;;;;-0.79;80.18;101695.23;1431613;91;22525;-91
2021/11/16 04:18:31;;;;;;;70.05;39.85;;;;;;;-0.75;80.49;101694.23;1422446;92;21408;-90
2021/11/16 04:21:00;;;;;;;62.40;39.50;;;;;;;-0.69;80.39;101695.38;1387724;92;21446;-90
2021/11/16 04:23:27;;;;;;;64.70;39.42;;;;;;;-0.65;80.28;101691.78;1421986;90;21571;-90
2021/11/16 04:25:56;;;;;;;66.90;39.50;;;;;;;-0.67;80.21;101693.56;1408177;92;21460;-90
2021/11/16 04:28:26;;;;;;;63.50;38.28;;;;;;;-0.69;80.18;101690.18;1414258;92;22436;-90
2021/11/16 04:30:54;;;;;;;67.72;38.13;;;;;;;-0.74;80.17;101689.45;1414151;92;21523;-91
2021/11/16 04:33:22;;;;;;;64.07;39.18;;;;;;;-0.75;79.81;101693.81;1412827;92;22432;-91
2021/11/16 04:35:49;;;;;;;67.95;37.15;;;;;;;-0.74;79.73;101694.66;1417961;91;22391;-89
2021/11/16 04:38:18;;;;;;;70.20;36.38;;;;;;;-0.80;79.35;101690.48;1424289;91;22568;-91
2021/11/16 04:40:52;;;;;;;70.35;39.83;;;;;;;-0.86;79.75;101693.69;1403879;91;21399;-89
2021/11/16 04:43:24;;;;;;;58.30;36.35;;;;;;;-0.92;79.76;101685.19;1399560;91;22315;-90
2021/11/16 04:45:52;;;;;;;63.00;35.83;;;;;;;-0.91;79.48;101685.58;1433515;91;21675;-91
2021/11/16 04:59:40;;;;;;;63.68;35.28;;;;;;;-0.88;80.28;101682.50;1411492;92;21410;-90
2021/11/16 05:04:51;;;;;;;62.53;35.60;;;;;;;-0.87;80.11;101690.23;1420097;91;21414;-90
2021/11/16 05:07:22;;;;;;;73.47;38.75;;;;;;;-0.87;79.72;101688.09;1421218;91;21439;-90
2021/11/16 05:09:54;;;;;;;62.83;35.30;;;;;;;-0.86;80.02;101687.19;1419259;91;22580;-90
2021/11/16 05:12:26;;;;;;;59.38;36.20;;;;;;;-0.86;79.77;101685.89;1419572;92;21394;-90
2021/11/16 05:14:56;;;;;;;54.58;32.60;;;;;;;-0.88;79.30;101683.34;1418148;91;21422;-89
2021/11/16 05:17:23;;;;;;;65.52;36.68;;;;;;;-0.91;79.14;101684.28;1403958;92;21343;-89
2021/11/16 05:19:50;;;;;;;68.85;38.90;;;;;;;-0.93;79.04;101688.66;1428470;91;21378;-89
2021/11/16 05:22:20;;;;;;;62.13;37.23;;;;;;;-0.93;79.42;101689.96;1431498;90;21592;-90
2021/11/16 05:24:47;;;;;;;62.00;36.20;;;;;;;-0.91;79.04;101686.88;1440186;90;21595;-90
2021/11/16 05:27:15;;;;;;;69.87;38.63;;;;;;;-0.89;79.33;101687.27;1444846;90;21481;-90
2021/11/16 05:29:43;;;;;;;74.82;38.05;;;;;;;-0.88;79.63;101685.10;1431886;90;21339;-91
2021/11/16 05:32:11;;;;;;;60.40;35.63;;;;;;;-0.85;79.38;101690.20;1438884;90;21413;-89
2021/11/16 05:34:40;;;;;;;70.20;38.92;;;;;;;-0.78;79.52;101689.12;1425023;90;22366;-90
2021/11/16 05:37:09;;;;;;;65.85;34.90;;;;;;;-0.67;79.54;101689.66;1427897;90;21561;-88
2021/11/16 05:39:36;;;;;;;60.78;36.38;;;;;;;-0.65;79.50;101695.69;1440082;90;22521;-89
2021/11/16 05:42:04;;;;;;;67.92;37.05;;;;;;;-0.68;78.79;101694.47;1440630;90;21458;-91
2021/11/16 05:44:32;;;;;;;56.77;35.43;;;;;;;-0.73;79.14;101687.25;1445612;90;22336;-92
2021/11/16 05:47:01;;;;;;;62.10;35.63;;;;;;;-0.79;79.03;101690.03;1449591;90;21561;-93
2021/11/16 05:49:32;;;;;;;55.17;36.40;;;;;;;-0.84;78.78;101690.60;1441819;90;21480;-91
2021/11/16 05:52:04;;;;;;;63.33;35.43;;;;;;;-0.84;78.98;101695.80;1442798;90;21479;-92
2021/11/16 05:54:34;;;;;;;72.10;35.85;;;;;;;-0.78;79.18;101691.72;1425834;90;21562;-92
2021/11/16 05:57:06;;;;;;;60.75;34.05;;;;;;;-0.74;79.11;101691.60;1431804;90;21562;-93
2021/11/16 05:59:36;;;;;;;76.65;39.05;;;;;;;-0.74;78.78;101686.41;1424638;90;21577;-92
2021/11/16 06:02:07;;;;;;;83.47;40.83;;;;;;;-0.77;78.73;101692.99;1428430;90;21733;-92
2021/11/16 06:04:35;;;;;;;74.50;40.98;;;;;;;-0.84;78.73;101691.45;1400309;92;21465;-90
2021/11/16 06:07:05;;;;;;;86.72;41.18;;;;;;;-0.89;78.85;101699.84;1417705;92;22411;-91
2021/11/16 06:09:33;;;;;;;86.00;42.27;;;;;;;-0.91;78.55;101699.03;1418271;92;21687;-92
2021/11/16 06:12:02;;;;;;;75.65;43.50;;;;;;;-0.89;78.79;101698.97;1422595;92;21407;-92
2021/11/16 06:14:29;;;;;;;85.40;46.28;;;;;;;-0.84;79.07;101704.45;1425974;92;21509;-91
2021/11/16 06:16:59;;;;;;;68.25;37.48;;;;;;;-0.77;78.97;101716.39;1417079;90;21509;-90
2021/11/16 06:19:27;;;;;;;76.75;39.90;;;;;;;-0.70;78.83;101705.36;1446252;90;21428;-90
2021/11/16 06:21:54;;;;;;;68.37;39.27;;;;;;;-0.62;79.03;101713.80;1440497;90;21796;-90
2021/11/16 06:24:21;;;;;;;68.65;38.42;;;;;;;-0.51;79.41;101702.62;1431383;90;22599;-90
2021/11/16 06:26:50;;;;;;;75.70;41.00;;;;;;;-0.42;79.87;101703.26;1444907;89;21396;-91
2021/11/16 06:29:17;;;;;;;74.50;39.42;;;;;;;-0.39;79.34;101701.86;1436498;91;21446;-89
2021/11/16 06:31:44;;;;;;;87.90;43.70;;;;;;;-0.41;78.93;101712.30;1435859;91;21432;-89
2021/11/16 06:34:12;;;;;;;79.53;43.52;;;;;;;-0.41;78.74;101702.34;1438923;89;21423;-88
2021/11/16 06:36:42;;;;;;;103.45;53.45;;;;;;;-0.34;78.87;101710.39;1433087;89;21374;-89
2021/11/16 06:39:22;;;;;;;91.65;46.42;;;;;;;-0.25;79.09;101703.59;1433513;91;21512;-89
2021/11/16 06:41:50;;;;;;;93.22;45.80;;;;;;;-0.10;79.39;101700.96;1435703;91;21647;-90
2021/11/16 06:44:21;;;;;;;93.12;46.58;;;;;;;0.03;79.52;101704.02;1426129;91;21330;-90
2021/11/16 06:46:51;;;;;;;90.70;48.17;;;;;;;0.06;79.22;101698.70;1416357;91;21983;-90
2021/11/16 06:49:19;;;;;;;94.90;44.95;;;;;;;0.13;79.19;101698.47;1434165;91;22808;-90
2021/11/16 06:51:52;;;;;;;89.10;45.50;;;;;;;0.25;79.66;101704.18;1426651;91;21373;-90
2021/11/16 06:54:22;;;;;;;84.10;44.15;;;;;;;0.31;79.43;101696.16;1425383;91;23078;-89
2021/11/16 06:56:51;;;;;;;80.35;42.23;;;;;;;0.35;79.52;101698.63;1414744;91;21573;-88
2021/11/16 06:59:24;;;;;;;80.73;44.17;;;;;;;0.43;79.89;101694.02;1433285;91;22038;-88
2021/11/16 07:01:54;;;;;;;78.50;44.50;;;;;;;0.52;80.07;101690.67;1416767;91;21994;-88
2021/11/16 07:04:21;;;;;;;85.20;46.40;;;;;;;0.62;80.38;101698.59;1431070;91;21477;-87
2021/11/16 07:06:51;;;;;;;89.23;48.30;;;;;;;0.75;80.51;101692.06;1428611;90;21754;-88
2021/11/16 07:09:20;;;;;;;99.33;51.07;;;;;;;0.85;80.70;101688.66;1438849;91;21637;-87
2021/11/16 07:11:53;;;;;;;110.03;53.80;;;;;;;0.93;81.06;101700.13;1442549;91;21527;-88
2021/11/16 07:14:24;;;;;;;110.13;53.17;;;;;;;1.00;81.32;101696.38;1428117;91;21593;-88
2021/11/16 07:16:59;;;;;;;94.90;48.67;;;;;;;1.09;81.00;101694.31;1437936;90;22328;-87
2021/11/16 07:19:35;;;;;;;88.23;47.90;;;;;;;1.23;81.64;101699.00;1431597;90;22559;-86
2021/11/16 07:22:25;;;;;;;93.33;45.50;;;;;;;1.33;81.78;101700.38;1426010;92;21915;-87
2021/11/16 07:28:09;;;;;;;;;;;;;;;;;;;;;
2021/11/16 07:30:31;;;;;;;75.20;41.57;;;;;;;1.75;81.73;101705.30;1443493;89;21707;-87
2021/11/16 07:33:03;;;;;;;78.83;44.50;;;;;;;1.94;81.65;101706.75;1435912;90;21748;-86
2021/11/16 07:35:34;;;;;;;81.23;43.00;;;;;;;2.08;81.37;101700.52;1445738;90;21419;-86
2021/11/16 07:38:09;;;;;;;78.13;39.63;;;;;;;2.21;81.67;101705.63;1444485;90;21606;-88
2021/11/16 07:40:41;;;;;;;67.30;39.30;;;;;;;2.34;81.49;101699.91;1443222;90;21701;-87
2021/11/16 07:43:13;;;;;;;67.10;38.80;;;;;;;2.43;82.62;101695.14;1446752;90;21814;-88
2021/11/16 07:45:44;;;;;;;71.07;40.30;;;;;;;2.44;83.58;101698.59;1446234;89;21948;-87
2021/11/16 07:48:18;;;;;;;75.78;41.90;;;;;;;2.59;82.96;101701.89;1445172;89;21682;-87
2021/11/16 07:50:55;;;;;;;72.97;39.70;;;;;;;2.63;83.26;101698.22;1471315;88;21411;-87
2021/11/16 07:53:31;;;;;;;78.80;41.67;;;;;;;2.74;83.38;101702.16;1466950;89;21737;-87
2021/11/16 07:56:04;;;;;;;68.43;40.80;;;;;;;2.89;83.29;101699.70;1471241;88;21629;-87
2021/11/16 07:58:37;;;;;;;71.47;39.03;;;;;;;2.90;83.49;101692.24;1472376;88;21727;-86
2021/11/16 08:01:21;;;;;;;60.73;36.53;;;;;;;2.94;83.38;101685.13;1483643;87;21926;-86
2021/11/16 08:03:57;;;;;;;77.00;43.60;;;;;;;3.01;83.52;101690.47;1483170;86;21749;-87
2021/11/16 08:06:32;;;;;;;61.97;35.33;;;;;;;3.25;83.07;101687.66;1468559;87;21968;-86
2021/11/16 08:09:07;;;;;;;195.60;88.33;;;;;;;3.37;82.91;101689.75;1456118;89;22136;-88
2021/11/16 08:11:33;;;;;;;72.07;38.27;;;;;;;3.61;82.21;101689.05;1463458;89;21837;-86
2021/11/16 08:14:07;;;;;;;162.97;78.77;;;;;;;3.75;82.18;101688.41;1444503;89;21845;-87
2021/11/16 08:16:49;;;;;;;165.60;86.43;;;;;;;3.75;82.18;101688.41;1444008;89;21855;-87
2021/11/16 08:19:22;;;;;;;65.80;37.83;;;;;;;3.94;81.86;101685.30;1465535;88;22346;-88
2021/11/16 08:21:55;;;;;;;62.17;32.53;;;;;;;4.12;80.83;101682.24;1461725;88;22245;-88
2021/11/16 08:24:19;;;;;;;65.57;36.67;;;;;;;4.25;80.55;101678.07;1483413;86;22354;-86
2021/11/16 08:26:49;;;;;;;70.03;39.43;;;;;;;4.47;80.60;101678.32;1486694;88;23031;-86
2021/11/16 08:29:31;;;;;;;37.33;25.15;;;;;;;4.66;79.99;101677.77;1479256;88;22141;-87
2021/11/16 08:32:04;;;;;;;;;;;;;;;4.83;78.92;101674.25;1499982;86;21396;-87
2021/11/16 08:34:32;;;;;;;;;;;;;;;4.87;78.08;101677.59;1491219;86;20341;-90
2021/11/16 08:37:00;;;;;;;137.82;69.75;;;;;;;5.02;78.35;101675.45;1489113;87;20304;-87
2021/11/16 08:39:39;;;;;;;87.43;49.53;;;;;;;5.20;78.59;101673.15;1483890;88;21381;-88
2021/11/16 08:42:28;;;;;;;97.00;53.90;;;;;;;5.46;78.62;101676.61;1488093;88;22178;-87
2021/11/16 08:45:04;;;;;;;56.00;33.30;;;;;;;5.62;76.94;101672.22;1483362;88;22328;-86
2021/11/16 08:47:36;;;;;;;86.40;47.67;;;;;;;5.75;76.49;101675.83;1485688;88;21500;-85
2021/11/16 08:50:22;;;;;;;63.67;34.53;;;;;;;5.89;75.38;101674.59;1477531;88;21477;-87
2021/11/16 08:52:49;;;;;;;70.70;43.40;;;;;;;6.02;74.87;101684.46;1498835;86;21404;-86
2021/11/16 08:55:22;;;;;;;103.17;54.50;;;;;;;6.16;74.59;101677.95;1487113;88;21574;-86
2021/11/16 08:57:52;;;;;;;52.47;31.53;;;;;;;6.31;74.56;101675.73;1483417;88;21661;-85
2021/11/16 09:00:24;;;;;;;59.87;35.50;;;;;;;6.45;74.42;101674.09;1512575;88;22393;-86
2021/11/16 09:03:16;;;;;;;60.43;37.03;;;;;;;6.68;75.00;101667.45;1476956;88;21403;-85
2021/11/16 09:05:47;;;;;;;35.03;21.37;;;;;;;6.76;73.14;101666.05;1475721;88;22452;-86
2021/11/16 09:08:26;;;;;;;47.73;29.03;;;;;;;6.98;73.68;101662.10;1463616;88;22070;-86
2021/11/16 09:10:58;;;;;;;31.63;22.30;;;;;;;7.25;74.00;101662.20;1494231;86;22364;-84
2021/11/16 09:13:29;;;;;;;40.03;27.07;;;;;;;7.48;72.87;101660.75;1484136;88;21418;-86
2021/11/16 09:16:20;;;;;;;41.97;26.10;;;;;;;7.69;72.12;101650.14;1483804;88;21483;-85
2021/11/16 09:18:53;;;;;;;29.37;20.97;;;;;;;8.22;71.68;101640.95;1487788;88;21308;-87
2021/11/16 09:21:28;;;;;;;31.37;20.40;;;;;;;9.15;67.82;101638.13;1489350;88;23290;-85
2021/11/16 09:24:06;;;;;;;26.00;19.43;;;;;;;9.82;62.74;101639.87;1485252;88;21544;-87
2021/11/16 09:26:52;;;;;;;36.10;24.75;;;;;;;10.63;64.64;101629.44;1472651;88;21500;-85
2021/11/16 09:29:18;;;;;;;35.90;24.23;;;;;;;11.23;60.83;101635.69;1465012;87;22402;-85
2021/11/16 09:31:53;;;;;;;28.57;20.47;;;;;;;11.62;56.95;101632.09;1462325;89;21450;-85
2021/11/16 09:34:30;;;;;;;49.00;29.73;;;;;;;12.27;59.35;101635.61;1468853;87;22387;-85
2021/11/16 09:37:22;;;;;;;49.23;33.20;;;;;;;12.67;57.10;101630.90;1458712;89;22307;-85
2021/11/16 09:40:02;;;;;;;49.00;33.57;;;;;;;13.06;56.64;101629.72;1461148;89;21429;-85
2021/11/16 09:42:36;;;;;;;25.73;19.83;;;;;;;13.39;53.42;101623.78;1462974;87;22498;-86
2021/11/16 09:45:16;;;;;;;27.73;20.97;;;;;;;13.39;53.42;101623.78;1457485;89;21844;-86
2021/11/16 09:47:44;;;;;;;25.90;19.00;;;;;;;13.88;54.42;101622.85;1464652;89;22167;-86
2021/11/16 09:50:20;;;;;;;20.27;16.13;;;;;;;13.79;52.97;101618.38;1461773;88;21405;-86
2021/11/16 09:52:56;;;;;;;41.60;29.73;;;;;;;13.86;52.13;101623.47;1464505;89;21435;-86
2021/11/16 09:55:34;;;;;;;29.70;21.40;;;;;;;14.12;52.87;101622.41;1461038;88;22470;-86
2021/11/16 09:58:07;;;;;;;30.57;21.27;;;;;;;14.40;52.62;101620.69;1456931;88;21449;-86
2021/11/16 10:00:42;;;;;;;60.93;33.53;;;;;;;14.77;52.23;101609.27;1457484;89;21419;-86
2021/11/16 10:03:18;;;;;;;28.67;20.37;;;;;;;14.81;45.98;101607.97;1469660;88;21382;-86
2021/11/16 10:05:52;;;;;;;26.57;20.00;;;;;;;14.87;49.72;101602.08;1459715;89;22469;-86
2021/11/16 10:08:23;;;;;;;28.45;19.12;;;;;;;15.18;50.25;101602.27;1465484;87;22536;-85
2021/11/16 10:10:55;;;;;;;52.38;29.05;;;;;;;15.41;49.71;101597.34;1466189;89;21412;-87
2021/11/16 10:13:27;;;;;;;34.60;20.57;;;;;;;15.47;47.21;101603.41;1471434;89;21448;-86
2021/11/16 10:15:57;;;;;;;30.80;21.77;;;;;;;15.48;48.53;101598.44;1454345;89;21868;-85
2021/11/16 10:18:27;;;;;;;48.40;32.48;;;;;;;15.51;47.01;101591.47;1462587;88;22425;-85
2021/11/16 10:20:56;;;;;;;27.57;19.47;;;;;;;15.31;47.47;101590.25;1463772;89;21353;-86
2021/11/16 10:23:33;;;;;;;19.82;14.50;;;;;;;15.23;45.05;101594.66;1464591;88;21375;-85
2021/11/16 10:26:03;;;;;;;34.60;24.80;;;;;;;14.48;44.13;101584.02;1470015;88;21404;-85
2021/11/16 10:28:33;;;;;;;56.50;19.05;;;;;;;14.82;47.26;101584.34;1487688;88;21353;-86
2021/11/16 10:31:03;;;;;;;24.60;18.17;;;;;;;14.96;48.09;101583.03;1481155;88;21646;-87
2021/11/16 10:33:38;;;;;;;29.27;20.10;;;;;;;14.80;46.71;101583.65;1479364;88;21359;-85
2021/11/16 10:36:11;;;;;;;31.05;23.83;;;;;;;14.89;48.26;101578.76;1478344;88;21395;-86
2021/11/16 10:38:52;;;;;;;24.37;17.70;;;;;;;15.11;48.20;101574.87;1481539;87;21492;-85
2021/11/16 10:41:25;;;;;;;22.22;17.75;;;;;;;14.93;45.48;101574.47;1497047;86;21536;-86
2021/11/16 10:44:09;;;;;;;31.73;25.02;;;;;;;14.63;44.63;101571.09;1484987;88;21656;-85
2021/11/16 10:46:44;;;;;;;26.57;18.12;;;;;;;14.78;47.57;101566.13;1481120;88;21471;-86
2021/11/16 10:49:19;;;;;;;23.62;17.95;;;;;;;14.82;47.94;101565.69;1486840;88;21367;-86
2021/11/16 10:51:49;;;;;;;22.42;18.80;;;;;;;14.76;45.67;101559.63;1479553;88;21515;-86
2021/11/16 10:54:17;;;;;;;25.13;19.70;;;;;;;14.98;46.62;101558.87;1481525;88;22394;-86
2021/11/16 10:56:47;;;;;;;23.25;18.17;;;;;;;14.63;46.69;101561.77;1475450;88;21580;-86
2021/11/16 10:59:19;;;;;;;25.10;20.20;;;;;;;14.41;46.44;101555.80;1483627;88;21544;-86
2021/11/16 11:01:50;;;;;;;29.48;21.85;;;;;;;14.55;47.15;101551.00;1481124;88;21374;-85
2021/11/16 11:04:31;;;;;;;26.45;21.07;;;;;;;15.02;47.81;101553.61;1486262;88;23291;-86
2021/11/16 11:07:13;;;;;;;26.12;20.88;;;;;;;15.24;46.03;101547.83;1485060;88;21539;-86
2021/11/16 11:09:42;;;;;;;25.97;20.30;;;;;;;15.33;46.61;101538.94;1489009;88;21425;-86
2021/11/16 11:12:29;;;;;;;27.87;18.15;;;;;;;15.58;46.36;101537.82;1478518;88;21352;-86
2021/11/16 11:14:54;;;;;;;26.70;19.27;;;;;;;15.51;45.72;101541.61;1485079;86;21433;-86
2021/11/16 11:17:38;;;;;;;38.90;21.33;;;;;;;15.66;45.21;101535.23;1501962;86;21492;-86
2021/11/16 11:20:12;;;;;;;31.12;21.15;;;;;;;15.78;45.82;101531.34;1480996;88;21374;-87
2021/11/16 11:22:42;;;;;;;29.65;19.80;;;;;;;15.98;45.89;101530.66;1477154;88;21566;-86
2021/11/16 11:25:34;;;;;;;38.38;22.32;;;;;;;15.74;44.08;101523.32;1483878;87;21514;-87
2021/11/16 11:30:19;;;;;;;26.33;20.62;;;;;;;15.99;45.01;101528.33;1477031;87;21433;-86
2021/11/16 11:32:50;;;;;;;23.47;18.50;;;;;;;16.00;44.57;101530.02;1459424;89;21541;-86
2021/11/16 11:35:23;;;;;;;31.37;21.30;;;;;;;15.59;42.76;101523.48;1459186;89;21589;-86
2021/11/16 11:37:58;;;;;;;41.60;29.37;;;;;;;15.55;44.15;101527.45;1459709;88;21501;-86
2021/11/16 11:40:35;;;;;;;27.65;20.20;;;;;;;15.83;45.12;101517.55;1455568;88;21545;-86
2021/11/16 11:43:10;;;;;;;30.92;19.52;;;;;;;15.94;42.57;101509.77;1458431;87;21493;-86
2021/11/16 11:45:41;;;;;;;25.08;19.07;;;;;;;16.25;44.40;101504.79;1467598;88;21586;-86
2021/11/16 11:48:18;;;;;;;27.22;18.90;;;;;;;16.59;44.26;101506.12;1462219;89;21375;-88
2021/11/16 11:50:47;;;;;;;26.30;18.12;;;;;;;16.77;43.56;101507.89;1464959;87;22097;-90
2021/11/16 11:53:29;;;;;;;21.05;17.30;;;;;;;16.61;42.19;101507.31;1463953;89;21375;-85